Mostar International Airport Mostar BA
ICAO: LQMO
IATA: OMO
Category: Medium
Scheduled Services: Yes

Elevation: 156 ft
TransAlt. 9500 ft.

Airport Communications:
APP:122.7
TWR:124.2

LQMO Zoom In..

Runways:

(A) RW 16 length 7874 ft width 161 ft
---- / hdg 156

(B) RW 34 length 7874 ft width 161 ft
---- / hdg 336

Location; LQMO
Day. 28 / Time. 10.30 Zulu
* QNH: 1011
* Temperature: 17° c. 62.6°f.
* Wind from: 130° Speed 06 kn.
Dewpoint: 03° c.
Visibility: 10 km or more.
Clouds: Few 5000 ft.

LQMO 281030Z 13006KT 100V160 9999 FEW050 17/03 Q1011


Wind From 130°
Speed 06 kn.

 
 
jpsmedia worldairports.se 2020   terms of use